sensor_id;sensor_type;location;lat;lon;timestamp;temperature;humidity
6357;DHT22;3211;53.452;-2.264;2024-01-11T00:01:53;6.60;99.90
6357;DHT22;3211;53.452;-2.264;2024-01-11T00:04:40;6.60;99.90
6357;DHT22;3211;53.452;-2.264;2024-01-11T00:07:29;6.50;99.90
6357;DHT22;3211;53.452;-2.264;2024-01-11T00:10:19;6.40;99.90
6357;DHT22;3211;53.452;-2.264;2024-01-11T00:13:07;6.40;99.90
6357;DHT22;3211;53.452;-2.264;2024-01-11T00:15:55;6.60;99.90
6357;DHT22;3211;53.452;-2.264;2024-01-11T00:18:43;6.50;99.90
6357;DHT22;3211;53.452;-2.264;2024-01-11T00:21:31;6.50;99.90
6357;DHT22;3211;53.452;-2.264;2024-01-11T00:24:19;6.60;99.90
6357;DHT22;3211;53.452;-2.264;2024-01-11T00:27:06;6.40;99.90
6357;DHT22;3211;53.452;-2.264;2024-01-11T00:29:54;6.30;99.90
6357;DHT22;3211;53.452;-2.264;2024-01-11T00:32:44;6.30;99.90
6357;DHT22;3211;53.452;-2.264;2024-01-11T00:35:31;6.30;99.90
6357;DHT22;3211;53.452;-2.264;2024-01-11T00:38:19;6.30;99.90
6357;DHT22;3211;53.452;-2.264;2024-01-11T00:41:07;6.40;99.90
6357;DHT22;3211;53.452;-2.264;2024-01-11T00:43:54;6.40;99.90
6357;DHT22;3211;53.452;-2.264;2024-01-11T00:46:42;6.40;99.90
6357;DHT22;3211;53.452;-2.264;2024-01-11T00:49:30;6.40;99.90
6357;DHT22;3211;53.452;-2.264;2024-01-11T00:52:17;6.30;99.90
6357;DHT22;3211;53.452;-2.264;2024-01-11T00:55:06;6.40;99.90
6357;DHT22;3211;53.452;-2.264;2024-01-11T00:57:54;6.40;99.90
6357;DHT22;3211;53.452;-2.264;2024-01-11T01:00:41;6.40;99.90
6357;DHT22;3211;53.452;-2.264;2024-01-11T01:03:28;6.20;99.90
6357;DHT22;3211;53.452;-2.264;2024-01-11T01:06:17;6.10;99.90
6357;DHT22;3211;53.452;-2.264;2024-01-11T01:09:04;6.10;99.90
6357;DHT22;3211;53.452;-2.264;2024-01-11T01:11:51;6.10;99.90
6357;DHT22;3211;53.452;-2.264;2024-01-11T01:14:38;6.20;99.90
6357;DHT22;3211;53.452;-2.264;2024-01-11T01:17:26;6.10;99.90
6357;DHT22;3211;53.452;-2.264;2024-01-11T01:20:13;5.90;99.90
6357;DHT22;3211;53.452;-2.264;2024-01-11T01:23:02;5.90;99.90
6357;DHT22;3211;53.452;-2.264;2024-01-11T01:25:49;5.80;99.90
6357;DHT22;3211;53.452;-2.264;2024-01-11T01:28:36;5.90;99.90
6357;DHT22;3211;53.452;-2.264;2024-01-11T01:31:24;6.00;99.90
6357;DHT22;3211;53.452;-2.264;2024-01-11T01:34:11;5.90;99.90
6357;DHT22;3211;53.452;-2.264;2024-01-11T01:37:00;5.70;99.90
6357;DHT22;3211;53.452;-2.264;2024-01-11T01:39:49;5.70;99.90
6357;DHT22;3211;53.452;-2.264;2024-01-11T01:42:40;5.80;99.90
6357;DHT22;3211;53.452;-2.264;2024-01-11T01:45:27;5.70;99.90
6357;DHT22;3211;53.452;-2.264;2024-01-11T01:48:15;5.60;99.90
6357;DHT22;3211;53.452;-2.264;2024-01-11T01:51:02;5.60;99.90
6357;DHT22;3211;53.452;-2.264;2024-01-11T01:53:52;5.60;99.90
6357;DHT22;3211;53.452;-2.264;2024-01-11T01:56:41;5.60;99.90
6357;DHT22;3211;53.452;-2.264;2024-01-11T01:59:29;5.60;99.90
6357;DHT22;3211;53.452;-2.264;2024-01-11T02:02:18;5.60;99.90
6357;DHT22;3211;53.452;-2.264;2024-01-11T02:05:06;5.70;99.90
6357;DHT22;3211;53.452;-2.264;2024-01-11T02:07:54;5.60;99.90
6357;DHT22;3211;53.452;-2.264;2024-01-11T02:10:43;5.60;99.90
6357;DHT22;3211;53.452;-2.264;2024-01-11T02:13:33;5.60;99.90
6357;DHT22;3211;53.452;-2.264;2024-01-11T02:16:21;5.50;99.90
6357;DHT22;3211;53.452;-2.264;2024-01-11T02:19:11;5.50;99.90
6357;DHT22;3211;53.452;-2.264;2024-01-11T02:22:02;5.60;99.90
6357;DHT22;3211;53.452;-2.264;2024-01-11T02:24:52;5.40;99.90
6357;DHT22;3211;53.452;-2.264;2024-01-11T02:27:46;5.50;99.90
6357;DHT22;3211;53.452;-2.264;2024-01-11T02:30:33;5.50;99.90
6357;DHT22;3211;53.452;-2.264;2024-01-11T02:33:21;5.40;99.90
6357;DHT22;3211;53.452;-2.264;2024-01-11T02:36:08;5.40;99.90
6357;DHT22;3211;53.452;-2.264;2024-01-11T02:38:55;5.40;99.90
6357;DHT22;3211;53.452;-2.264;2024-01-11T02:41:45;5.40;99.90
6357;DHT22;3211;53.452;-2.264;2024-01-11T02:44:32;5.30;99.90
6357;DHT22;3211;53.452;-2.264;2024-01-11T02:47:19;5.40;99.90
6357;DHT22;3211;53.452;-2.264;2024-01-11T02:50:07;5.40;99.90
6357;DHT22;3211;53.452;-2.264;2024-01-11T02:52:54;5.10;99.90
6357;DHT22;3211;53.452;-2.264;2024-01-11T02:55:42;5.20;99.90
6357;DHT22;3211;53.452;-2.264;2024-01-11T02:58:30;5.30;99.90
6357;DHT22;3211;53.452;-2.264;2024-01-11T03:01:17;5.20;99.90
6357;DHT22;3211;53.452;-2.264;2024-01-11T03:04:05;5.30;99.90
6357;DHT22;3211;53.452;-2.264;2024-01-11T03:06:52;5.20;99.90
6357;DHT22;3211;53.452;-2.264;2024-01-11T03:09:39;5.30;99.90
6357;DHT22;3211;53.452;-2.264;2024-01-11T03:12:27;5.30;99.90
6357;DHT22;3211;53.452;-2.264;2024-01-11T03:15:15;5.10;99.90
6357;DHT22;3211;53.452;-2.264;2024-01-11T03:18:03;5.10;99.90
6357;DHT22;3211;53.452;-2.264;2024-01-11T03:20:50;5.10;99.90
6357;DHT22;3211;53.452;-2.264;2024-01-11T03:23:38;5.10;99.90
6357;DHT22;3211;53.452;-2.264;2024-01-11T03:26:25;5.00;99.90
6357;DHT22;3211;53.452;-2.264;2024-01-11T03:29:13;5.10;99.90
6357;DHT22;3211;53.452;-2.264;2024-01-11T03:32:01;5.00;99.90
6357;DHT22;3211;53.452;-2.264;2024-01-11T03:34:49;5.10;99.90
6357;DHT22;3211;53.452;-2.264;2024-01-11T03:37:36;5.10;99.90
6357;DHT22;3211;53.452;-2.264;2024-01-11T03:40:23;5.00;99.90
6357;DHT22;3211;53.452;-2.264;2024-01-11T03:43:10;4.90;99.90
6357;DHT22;3211;53.452;-2.264;2024-01-11T03:45:57;4.90;99.90
6357;DHT22;3211;53.452;-2.264;2024-01-11T03:48:46;4.90;99.90
6357;DHT22;3211;53.452;-2.264;2024-01-11T03:51:34;5.00;99.90
6357;DHT22;3211;53.452;-2.264;2024-01-11T03:54:21;4.90;99.90
6357;DHT22;3211;53.452;-2.264;2024-01-11T03:57:08;5.00;99.90
6357;DHT22;3211;53.452;-2.264;2024-01-11T03:59:55;5.00;99.90
6357;DHT22;3211;53.452;-2.264;2024-01-11T04:02:44;5.10;99.90
6357;DHT22;3211;53.452;-2.264;2024-01-11T04:05:33;5.10;99.90
6357;DHT22;3211;53.452;-2.264;2024-01-11T04:08:20;5.10;99.90
6357;DHT22;3211;53.452;-2.264;2024-01-11T04:11:07;5.20;99.90
6357;DHT22;3211;53.452;-2.264;2024-01-11T04:13:55;5.10;99.90
6357;DHT22;3211;53.452;-2.264;2024-01-11T04:16:42;5.20;99.90
6357;DHT22;3211;53.452;-2.264;2024-01-11T04:19:30;5.10;99.90
6357;DHT22;3211;53.452;-2.264;2024-01-11T04:22:18;5.20;99.90
6357;DHT22;3211;53.452;-2.264;2024-01-11T04:25:07;5.20;99.90
6357;DHT22;3211;53.452;-2.264;2024-01-11T04:27:54;5.10;99.90
6357;DHT22;3211;53.452;-2.264;2024-01-11T04:30:42;5.20;99.90
6357;DHT22;3211;53.452;-2.264;2024-01-11T04:33:29;5.10;99.90
6357;DHT22;3211;53.452;-2.264;2024-01-11T04:36:16;5.10;99.90
6357;DHT22;3211;53.452;-2.264;2024-01-11T04:39:05;5.20;99.90
6357;DHT22;3211;53.452;-2.264;2024-01-11T04:41:53;5.20;99.90
6357;DHT22;3211;53.452;-2.264;2024-01-11T04:44:40;5.20;99.90
6357;DHT22;3211;53.452;-2.264;2024-01-11T04:47:27;5.20;99.90
6357;DHT22;3211;53.452;-2.264;2024-01-11T04:50:15;5.10;99.90
6357;DHT22;3211;53.452;-2.264;2024-01-11T04:53:02;5.30;99.90
6357;DHT22;3211;53.452;-2.264;2024-01-11T04:55:51;5.30;99.90
6357;DHT22;3211;53.452;-2.264;2024-01-11T04:58:40;5.30;99.90
6357;DHT22;3211;53.452;-2.264;2024-01-11T05:01:27;5.30;99.90
6357;DHT22;3211;53.452;-2.264;2024-01-11T05:04:15;5.20;99.90
6357;DHT22;3211;53.452;-2.264;2024-01-11T05:07:02;5.30;99.90
6357;DHT22;3211;53.452;-2.264;2024-01-11T05:09:49;5.30;99.90
6357;DHT22;3211;53.452;-2.264;2024-01-11T05:12:38;5.20;99.90
6357;DHT22;3211;53.452;-2.264;2024-01-11T05:15:25;5.10;99.90
6357;DHT22;3211;53.452;-2.264;2024-01-11T05:18:13;5.20;99.90
6357;DHT22;3211;53.452;-2.264;2024-01-11T05:21:00;5.10;99.90
6357;DHT22;3211;53.452;-2.264;2024-01-11T05:23:47;5.20;99.90
6357;DHT22;3211;53.452;-2.264;2024-01-11T05:26:34;5.10;99.90
6357;DHT22;3211;53.452;-2.264;2024-01-11T05:29:23;5.10;99.90
6357;DHT22;3211;53.452;-2.264;2024-01-11T05:32:10;5.20;99.90
6357;DHT22;3211;53.452;-2.264;2024-01-11T05:34:57;5.20;99.90
6357;DHT22;3211;53.452;-2.264;2024-01-11T05:37:45;5.20;99.90
6357;DHT22;3211;53.452;-2.264;2024-01-11T05:40:32;5.10;99.90
6357;DHT22;3211;53.452;-2.264;2024-01-11T05:43:19;5.20;99.90
6357;DHT22;3211;53.452;-2.264;2024-01-11T05:46:08;5.20;99.90
6357;DHT22;3211;53.452;-2.264;2024-01-11T05:48:55;5.20;99.90
6357;DHT22;3211;53.452;-2.264;2024-01-11T05:51:42;5.20;99.90
6357;DHT22;3211;53.452;-2.264;2024-01-11T05:54:29;5.10;99.90
6357;DHT22;3211;53.452;-2.264;2024-01-11T05:57:16;5.10;99.90
6357;DHT22;3211;53.452;-2.264;2024-01-11T06:00:05;5.10;99.90
6357;DHT22;3211;53.452;-2.264;2024-01-11T06:02:53;5.20;99.90
6357;DHT22;3211;53.452;-2.264;2024-01-11T06:05:41;5.10;99.90
6357;DHT22;3211;53.452;-2.264;2024-01-11T06:08:29;5.10;99.90
6357;DHT22;3211;53.452;-2.264;2024-01-11T06:11:17;5.20;99.90
6357;DHT22;3211;53.452;-2.264;2024-01-11T06:14:05;5.20;99.90
6357;DHT22;3211;53.452;-2.264;2024-01-11T06:16:52;5.20;99.90
6357;DHT22;3211;53.452;-2.264;2024-01-11T06:19:41;5.20;99.90
6357;DHT22;3211;53.452;-2.264;2024-01-11T06:22:28;5.20;99.90
6357;DHT22;3211;53.452;-2.264;2024-01-11T06:25:15;5.30;99.90
6357;DHT22;3211;53.452;-2.264;2024-01-11T06:28:04;5.40;99.90
6357;DHT22;3211;53.452;-2.264;2024-01-11T06:30:52;5.40;99.90
6357;DHT22;3211;53.452;-2.264;2024-01-11T06:33:40;5.40;99.90
6357;DHT22;3211;53.452;-2.264;2024-01-11T06:36:29;5.40;99.90
6357;DHT22;3211;53.452;-2.264;2024-01-11T06:39:16;5.50;99.90
6357;DHT22;3211;53.452;-2.264;2024-01-11T06:42:04;5.50;99.90
6357;DHT22;3211;53.452;-2.264;2024-01-11T06:44:52;5.60;99.90
6357;DHT22;3211;53.452;-2.264;2024-01-11T06:47:39;5.70;99.90
6357;DHT22;3211;53.452;-2.264;2024-01-11T06:50:26;5.70;99.90
6357;DHT22;3211;53.452;-2.264;2024-01-11T06:53:15;5.60;99.90
6357;DHT22;3211;53.452;-2.264;2024-01-11T06:56:02;5.60;99.90
6357;DHT22;3211;53.452;-2.264;2024-01-11T06:58:49;5.70;99.90
6357;DHT22;3211;53.452;-2.264;2024-01-11T07:01:37;5.70;99.90
6357;DHT22;3211;53.452;-2.264;2024-01-11T07:04:24;5.60;99.90
6357;DHT22;3211;53.452;-2.264;2024-01-11T07:07:12;5.60;99.90
6357;DHT22;3211;53.452;-2.264;2024-01-11T07:10:00;5.70;99.90
6357;DHT22;3211;53.452;-2.264;2024-01-11T07:12:48;5.80;99.90
6357;DHT22;3211;53.452;-2.264;2024-01-11T07:15:35;5.80;99.90
6357;DHT22;3211;53.452;-2.264;2024-01-11T07:18:22;5.90;99.90
6357;DHT22;3211;53.452;-2.264;2024-01-11T07:21:09;5.90;99.90
6357;DHT22;3211;53.452;-2.264;2024-01-11T07:23:57;5.90;99.90
6357;DHT22;3211;53.452;-2.264;2024-01-11T07:26:46;6.00;99.90
6357;DHT22;3211;53.452;-2.264;2024-01-11T07:29:33;6.00;99.90
6357;DHT22;3211;53.452;-2.264;2024-01-11T07:32:21;5.90;99.90
6357;DHT22;3211;53.452;-2.264;2024-01-11T07:35:08;5.90;99.90
6357;DHT22;3211;53.452;-2.264;2024-01-11T07:37:56;5.90;99.90
6357;DHT22;3211;53.452;-2.264;2024-01-11T07:40:43;5.90;99.90
6357;DHT22;3211;53.452;-2.264;2024-01-11T07:43:32;5.80;99.90
6357;DHT22;3211;53.452;-2.264;2024-01-11T07:46:21;5.80;99.90
6357;DHT22;3211;53.452;-2.264;2024-01-11T07:49:08;5.90;99.90
6357;DHT22;3211;53.452;-2.264;2024-01-11T07:51:56;6.00;99.90
6357;DHT22;3211;53.452;-2.264;2024-01-11T07:54:43;6.10;99.90
6357;DHT22;3211;53.452;-2.264;2024-01-11T07:57:30;6.10;99.90
6357;DHT22;3211;53.452;-2.264;2024-01-11T08:00:19;6.10;99.90
6357;DHT22;3211;53.452;-2.264;2024-01-11T08:03:06;6.10;99.90
6357;DHT22;3211;53.452;-2.264;2024-01-11T08:05:54;6.10;99.90
6357;DHT22;3211;53.452;-2.264;2024-01-11T08:08:41;6.10;99.90
6357;DHT22;3211;53.452;-2.264;2024-01-11T08:11:29;6.20;99.90
6357;DHT22;3211;53.452;-2.264;2024-01-11T08:14:16;6.20;99.90
6357;DHT22;3211;53.452;-2.264;2024-01-11T08:17:05;6.10;99.90
6357;DHT22;3211;53.452;-2.264;2024-01-11T08:19:52;6.10;99.90
6357;DHT22;3211;53.452;-2.264;2024-01-11T08:22:41;6.20;99.90
6357;DHT22;3211;53.452;-2.264;2024-01-11T08:25:29;6.20;99.90
6357;DHT22;3211;53.452;-2.264;2024-01-11T08:28:16;6.20;99.90
6357;DHT22;3211;53.452;-2.264;2024-01-11T08:31:03;6.30;99.90
6357;DHT22;3211;53.452;-2.264;2024-01-11T08:33:53;6.40;99.90
6357;DHT22;3211;53.452;-2.264;2024-01-11T08:36:40;6.40;99.90
6357;DHT22;3211;53.452;-2.264;2024-01-11T08:39:27;6.30;99.90
6357;DHT22;3211;53.452;-2.264;2024-01-11T08:42:15;6.40;99.90
6357;DHT22;3211;53.452;-2.264;2024-01-11T08:45:04;6.50;99.90
6357;DHT22;3211;53.452;-2.264;2024-01-11T08:47:52;6.40;99.90
6357;DHT22;3211;53.452;-2.264;2024-01-11T08:50:41;6.30;99.90
6357;DHT22;3211;53.452;-2.264;2024-01-11T08:53:28;6.40;99.90
6357;DHT22;3211;53.452;-2.264;2024-01-11T08:56:16;6.40;99.90
6357;DHT22;3211;53.452;-2.264;2024-01-11T08:59:03;6.50;99.90
6357;DHT22;3211;53.452;-2.264;2024-01-11T09:01:50;6.60;99.90
6357;DHT22;3211;53.452;-2.264;2024-01-11T09:04:37;6.60;99.90
6357;DHT22;3211;53.452;-2.264;2024-01-11T09:07:26;6.50;99.90
6357;DHT22;3211;53.452;-2.264;2024-01-11T09:10:13;6.50;99.90
6357;DHT22;3211;53.452;-2.264;2024-01-11T09:13:00;6.70;99.90
6357;DHT22;3211;53.452;-2.264;2024-01-11T09:15:48;6.80;99.90
6357;DHT22;3211;53.452;-2.264;2024-01-11T09:18:35;6.80;99.90
6357;DHT22;3211;53.452;-2.264;2024-01-11T09:21:22;6.80;99.90
6357;DHT22;3211;53.452;-2.264;2024-01-11T09:24:11;6.80;99.90
6357;DHT22;3211;53.452;-2.264;2024-01-11T09:26:58;6.80;99.90
6357;DHT22;3211;53.452;-2.264;2024-01-11T09:29:46;6.80;99.90
6357;DHT22;3211;53.452;-2.264;2024-01-11T09:32:33;6.70;99.90
6357;DHT22;3211;53.452;-2.264;2024-01-11T09:35:21;6.70;99.90
6357;DHT22;3211;53.452;-2.264;2024-01-11T09:38:09;6.70;99.90
6357;DHT22;3211;53.452;-2.264;2024-01-11T09:41:06;6.70;99.90
6357;DHT22;3211;53.452;-2.264;2024-01-11T09:43:54;6.70;99.90
6357;DHT22;3211;53.452;-2.264;2024-01-11T09:46:43;6.70;99.90
6357;DHT22;3211;53.452;-2.264;2024-01-11T09:49:32;6.80;99.90
6357;DHT22;3211;53.452;-2.264;2024-01-11T09:52:20;6.80;99.90
6357;DHT22;3211;53.452;-2.264;2024-01-11T09:55:11;6.90;99.90
6357;DHT22;3211;53.452;-2.264;2024-01-11T09:58:01;6.90;99.90
6357;DHT22;3211;53.452;-2.264;2024-01-11T10:00:50;7.00;99.90
6357;DHT22;3211;53.452;-2.264;2024-01-11T10:03:39;7.10;99.90
6357;DHT22;3211;53.452;-2.264;2024-01-11T10:06:27;7.00;99.90
6357;DHT22;3211;53.452;-2.264;2024-01-11T10:09:15;7.10;99.90
6357;DHT22;3211;53.452;-2.264;2024-01-11T10:12:02;7.30;99.90
6357;DHT22;3211;53.452;-2.264;2024-01-11T10:14:51;7.20;99.90
6357;DHT22;3211;53.452;-2.264;2024-01-11T10:17:41;7.30;99.90
6357;DHT22;3211;53.452;-2.264;2024-01-11T10:20:30;7.40;99.90
6357;DHT22;3211;53.452;-2.264;2024-01-11T10:23:18;7.50;99.90
6357;DHT22;3211;53.452;-2.264;2024-01-11T10:26:05;7.40;99.90
6357;DHT22;3211;53.452;-2.264;2024-01-11T10:28:53;7.40;99.90
6357;DHT22;3211;53.452;-2.264;2024-01-11T10:31:43;7.40;99.90
6357;DHT22;3211;53.452;-2.264;2024-01-11T10:34:31;7.40;99.90
6357;DHT22;3211;53.452;-2.264;2024-01-11T10:37:19;7.40;99.90
6357;DHT22;3211;53.452;-2.264;2024-01-11T10:40:08;7.40;99.90
6357;DHT22;3211;53.452;-2.264;2024-01-11T10:42:59;7.30;99.90
6357;DHT22;3211;53.452;-2.264;2024-01-11T10:45:48;7.40;99.90
6357;DHT22;3211;53.452;-2.264;2024-01-11T10:48:43;7.40;99.90
6357;DHT22;3211;53.452;-2.264;2024-01-11T10:51:32;7.50;99.90
6357;DHT22;3211;53.452;-2.264;2024-01-11T10:54:20;7.40;99.90
6357;DHT22;3211;53.452;-2.264;2024-01-11T10:57:09;7.40;99.90
6357;DHT22;3211;53.452;-2.264;2024-01-11T10:59:57;7.40;99.90
6357;DHT22;3211;53.452;-2.264;2024-01-11T11:02:49;7.40;99.90
6357;DHT22;3211;53.452;-2.264;2024-01-11T11:05:40;7.50;99.90
6357;DHT22;3211;53.452;-2.264;2024-01-11T11:08:28;7.40;99.90
6357;DHT22;3211;53.452;-2.264;2024-01-11T11:11:15;7.40;99.90
6357;DHT22;3211;53.452;-2.264;2024-01-11T11:14:05;7.30;99.90
6357;DHT22;3211;53.452;-2.264;2024-01-11T11:16:53;7.30;99.90
6357;DHT22;3211;53.452;-2.264;2024-01-11T11:19:41;7.30;99.90
6357;DHT22;3211;53.452;-2.264;2024-01-11T11:22:33;7.30;99.90
6357;DHT22;3211;53.452;-2.264;2024-01-11T11:25:24;7.40;99.90
6357;DHT22;3211;53.452;-2.264;2024-01-11T11:28:12;7.40;99.90
6357;DHT22;3211;53.452;-2.264;2024-01-11T11:31:00;7.50;99.90
6357;DHT22;3211;53.452;-2.264;2024-01-11T11:33:49;7.30;99.90
6357;DHT22;3211;53.452;-2.264;2024-01-11T11:36:37;7.30;99.90
6357;DHT22;3211;53.452;-2.264;2024-01-11T11:39:27;7.40;99.90
6357;DHT22;3211;53.452;-2.264;2024-01-11T11:42:15;7.50;99.90
6357;DHT22;3211;53.452;-2.264;2024-01-11T11:45:03;7.40;99.90
6357;DHT22;3211;53.452;-2.264;2024-01-11T11:47:50;7.40;99.90
6357;DHT22;3211;53.452;-2.264;2024-01-11T11:50:37;7.40;99.90
6357;DHT22;3211;53.452;-2.264;2024-01-11T11:53:27;7.50;99.90
6357;DHT22;3211;53.452;-2.264;2024-01-11T11:56:19;7.40;99.90
6357;DHT22;3211;53.452;-2.264;2024-01-11T11:59:08;7.50;99.90
6357;DHT22;3211;53.452;-2.264;2024-01-11T12:01:55;7.50;99.90
6357;DHT22;3211;53.452;-2.264;2024-01-11T12:04:46;7.60;99.90
6357;DHT22;3211;53.452;-2.264;2024-01-11T12:07:34;7.70;99.90
6357;DHT22;3211;53.452;-2.264;2024-01-11T12:10:21;7.70;99.90
6357;DHT22;3211;53.452;-2.264;2024-01-11T12:13:10;7.70;99.90
6357;DHT22;3211;53.452;-2.264;2024-01-11T12:15:57;7.50;99.90
6357;DHT22;3211;53.452;-2.264;2024-01-11T12:18:44;7.50;99.90
6357;DHT22;3211;53.452;-2.264;2024-01-11T12:21:32;7.60;99.90
6357;DHT22;3211;53.452;-2.264;2024-01-11T12:24:19;7.70;99.90
6357;DHT22;3211;53.452;-2.264;2024-01-11T12:27:07;7.70;99.90
6357;DHT22;3211;53.452;-2.264;2024-01-11T12:29:56;7.60;99.90
6357;DHT22;3211;53.452;-2.264;2024-01-11T12:32:43;7.70;99.90
6357;DHT22;3211;53.452;-2.264;2024-01-11T12:35:32;7.70;99.90
6357;DHT22;3211;53.452;-2.264;2024-01-11T12:38:19;7.70;99.90
6357;DHT22;3211;53.452;-2.264;2024-01-11T12:41:07;7.70;99.90
6357;DHT22;3211;53.452;-2.264;2024-01-11T12:43:56;7.60;99.90
6357;DHT22;3211;53.452;-2.264;2024-01-11T12:46:47;7.60;99.90
6357;DHT22;3211;53.452;-2.264;2024-01-11T12:49:34;7.60;99.90
6357;DHT22;3211;53.452;-2.264;2024-01-11T12:52:21;7.60;99.90
6357;DHT22;3211;53.452;-2.264;2024-01-11T12:55:18;7.50;99.90
6357;DHT22;3211;53.452;-2.264;2024-01-11T12:58:06;7.60;99.90
6357;DHT22;3211;53.452;-2.264;2024-01-11T13:00:55;7.60;99.90
6357;DHT22;3211;53.452;-2.264;2024-01-11T13:03:46;7.70;99.90
6357;DHT22;3211;53.452;-2.264;2024-01-11T13:06:33;7.60;99.90
6357;DHT22;3211;53.452;-2.264;2024-01-11T13:09:21;7.70;99.90
6357;DHT22;3211;53.452;-2.264;2024-01-11T13:12:08;7.70;99.90
6357;DHT22;3211;53.452;-2.264;2024-01-11T13:14:56;7.70;99.90
6357;DHT22;3211;53.452;-2.264;2024-01-11T13:17:43;7.70;99.90
6357;DHT22;3211;53.452;-2.264;2024-01-11T13:20:32;7.70;99.90
6357;DHT22;3211;53.452;-2.264;2024-01-11T13:23:20;7.60;99.90
6357;DHT22;3211;53.452;-2.264;2024-01-11T13:26:07;7.60;99.90
6357;DHT22;3211;53.452;-2.264;2024-01-11T13:28:55;7.50;99.90
6357;DHT22;3211;53.452;-2.264;2024-01-11T13:31:42;7.60;99.90
6357;DHT22;3211;53.452;-2.264;2024-01-11T13:34:30;7.60;99.90
6357;DHT22;3211;53.452;-2.264;2024-01-11T13:37:18;7.60;99.90
6357;DHT22;3211;53.452;-2.264;2024-01-11T13:40:07;7.80;99.90
6357;DHT22;3211;53.452;-2.264;2024-01-11T13:42:55;7.70;99.90
6357;DHT22;3211;53.452;-2.264;2024-01-11T13:45:43;7.70;99.90
6357;DHT22;3211;53.452;-2.264;2024-01-11T13:48:30;7.60;99.90
6357;DHT22;3211;53.452;-2.264;2024-01-11T13:51:18;7.60;99.90
6357;DHT22;3211;53.452;-2.264;2024-01-11T13:54:06;7.70;99.90
6357;DHT22;3211;53.452;-2.264;2024-01-11T13:56:54;7.70;99.90
6357;DHT22;3211;53.452;-2.264;2024-01-11T13:59:41;7.80;99.90
6357;DHT22;3211;53.452;-2.264;2024-01-11T14:02:28;7.70;99.90
6357;DHT22;3211;53.452;-2.264;2024-01-11T14:05:16;7.80;99.90
6357;DHT22;3211;53.452;-2.264;2024-01-11T14:08:03;7.70;99.90
6357;DHT22;3211;53.452;-2.264;2024-01-11T14:10:54;7.70;99.90
6357;DHT22;3211;53.452;-2.264;2024-01-11T14:13:42;7.70;99.90
6357;DHT22;3211;53.452;-2.264;2024-01-11T14:16:29;7.60;99.90
6357;DHT22;3211;53.452;-2.264;2024-01-11T14:19:16;7.60;99.90
6357;DHT22;3211;53.452;-2.264;2024-01-11T14:22:04;7.50;99.90
6357;DHT22;3211;53.452;-2.264;2024-01-11T14:24:51;7.60;99.90
6357;DHT22;3211;53.452;-2.264;2024-01-11T14:27:40;7.60;99.90
6357;DHT22;3211;53.452;-2.264;2024-01-11T14:30:27;7.50;99.90
6357;DHT22;3211;53.452;-2.264;2024-01-11T14:33:15;7.50;99.90
6357;DHT22;3211;53.452;-2.264;2024-01-11T14:36:02;7.50;99.90
6357;DHT22;3211;53.452;-2.264;2024-01-11T14:38:50;7.60;99.90
6357;DHT22;3211;53.452;-2.264;2024-01-11T14:41:37;7.60;99.90
6357;DHT22;3211;53.452;-2.264;2024-01-11T14:44:26;7.60;99.90
6357;DHT22;3211;53.452;-2.264;2024-01-11T14:47:13;7.60;99.90
6357;DHT22;3211;53.452;-2.264;2024-01-11T14:50:02;7.60;99.90
6357;DHT22;3211;53.452;-2.264;2024-01-11T14:52:50;7.60;99.90
6357;DHT22;3211;53.452;-2.264;2024-01-11T14:55:38;7.60;99.90
6357;DHT22;3211;53.452;-2.264;2024-01-11T14:58:25;7.60;99.90
6357;DHT22;3211;53.452;-2.264;2024-01-11T15:01:13;7.50;99.90
6357;DHT22;3211;53.452;-2.264;2024-01-11T15:04:01;7.50;99.90
6357;DHT22;3211;53.452;-2.264;2024-01-11T15:06:48;7.50;99.90
6357;DHT22;3211;53.452;-2.264;2024-01-11T15:09:35;7.50;99.90
6357;DHT22;3211;53.452;-2.264;2024-01-11T15:12:23;7.60;99.90
6357;DHT22;3211;53.452;-2.264;2024-01-11T15:15:10;7.60;99.90
6357;DHT22;3211;53.452;-2.264;2024-01-11T15:17:59;7.60;99.90
6357;DHT22;3211;53.452;-2.264;2024-01-11T15:20:46;7.70;99.90
6357;DHT22;3211;53.452;-2.264;2024-01-11T15:23:34;7.70;99.90
6357;DHT22;3211;53.452;-2.264;2024-01-11T15:26:21;7.70;99.90
6357;DHT22;3211;53.452;-2.264;2024-01-11T15:29:09;7.60;99.90
6357;DHT22;3211;53.452;-2.264;2024-01-11T15:31:56;7.70;99.90
6357;DHT22;3211;53.452;-2.264;2024-01-11T15:34:45;7.60;99.90
6357;DHT22;3211;53.452;-2.264;2024-01-11T15:37:32;7.60;99.90
6357;DHT22;3211;53.452;-2.264;2024-01-11T15:40:19;7.60;99.90
6357;DHT22;3211;53.452;-2.264;2024-01-11T15:43:07;7.60;99.90
6357;DHT22;3211;53.452;-2.264;2024-01-11T15:45:54;7.60;99.90
6357;DHT22;3211;53.452;-2.264;2024-01-11T15:48:42;7.50;99.90
6357;DHT22;3211;53.452;-2.264;2024-01-11T15:51:31;7.50;99.90
6357;DHT22;3211;53.452;-2.264;2024-01-11T15:54:18;7.50;99.90
6357;DHT22;3211;53.452;-2.264;2024-01-11T15:57:06;7.50;99.90
6357;DHT22;3211;53.452;-2.264;2024-01-11T15:59:53;7.50;99.90
6357;DHT22;3211;53.452;-2.264;2024-01-11T16:02:41;7.50;99.90
6357;DHT22;3211;53.452;-2.264;2024-01-11T16:05:29;7.50;99.90
6357;DHT22;3211;53.452;-2.264;2024-01-11T16:08:17;7.50;99.90
6357;DHT22;3211;53.452;-2.264;2024-01-11T16:11:04;7.50;99.90
6357;DHT22;3211;53.452;-2.264;2024-01-11T16:13:52;7.40;99.90
6357;DHT22;3211;53.452;-2.264;2024-01-11T16:16:39;7.30;99.90
6357;DHT22;3211;53.452;-2.264;2024-01-11T16:19:27;7.40;99.90
6357;DHT22;3211;53.452;-2.264;2024-01-11T16:22:16;7.30;99.90
6357;DHT22;3211;53.452;-2.264;2024-01-11T16:25:08;7.40;99.90
6357;DHT22;3211;53.452;-2.264;2024-01-11T16:27:55;7.30;99.90
6357;DHT22;3211;53.452;-2.264;2024-01-11T16:30:43;7.40;99.90
6357;DHT22;3211;53.452;-2.264;2024-01-11T16:33:31;7.40;99.90
6357;DHT22;3211;53.452;-2.264;2024-01-11T16:36:18;7.30;99.90
6357;DHT22;3211;53.452;-2.264;2024-01-11T16:39:05;7.30;99.90
6357;DHT22;3211;53.452;-2.264;2024-01-11T16:41:56;7.40;99.90
6357;DHT22;3211;53.452;-2.264;2024-01-11T16:44:44;7.50;99.90
6357;DHT22;3211;53.452;-2.264;2024-01-11T16:47:31;7.40;99.90
6357;DHT22;3211;53.452;-2.264;2024-01-11T16:50:21;7.30;99.90
6357;DHT22;3211;53.452;-2.264;2024-01-11T16:53:09;7.40;99.90
6357;DHT22;3211;53.452;-2.264;2024-01-11T16:55:56;7.40;99.90
6357;DHT22;3211;53.452;-2.264;2024-01-11T16:58:45;7.50;99.90
6357;DHT22;3211;53.452;-2.264;2024-01-11T17:01:32;7.50;99.90
6357;DHT22;3211;53.452;-2.264;2024-01-11T17:04:20;7.50;99.90
6357;DHT22;3211;53.452;-2.264;2024-01-11T17:07:09;7.50;99.90
6357;DHT22;3211;53.452;-2.264;2024-01-11T17:09:56;7.50;99.90
6357;DHT22;3211;53.452;-2.264;2024-01-11T17:12:43;7.40;99.90
6357;DHT22;3211;53.452;-2.264;2024-01-11T17:15:32;7.30;99.90
6357;DHT22;3211;53.452;-2.264;2024-01-11T17:18:20;7.50;99.90
6357;DHT22;3211;53.452;-2.264;2024-01-11T17:21:07;7.40;99.90
6357;DHT22;3211;53.452;-2.264;2024-01-11T17:23:54;7.30;99.90
6357;DHT22;3211;53.452;-2.264;2024-01-11T17:26:41;7.30;99.90
6357;DHT22;3211;53.452;-2.264;2024-01-11T17:29:29;7.30;99.90
6357;DHT22;3211;53.452;-2.264;2024-01-11T17:32:17;7.20;99.90
6357;DHT22;3211;53.452;-2.264;2024-01-11T17:35:06;7.40;99.90
6357;DHT22;3211;53.452;-2.264;2024-01-11T17:37:53;7.40;99.90
6357;DHT22;3211;53.452;-2.264;2024-01-11T17:40:42;7.40;99.90
6357;DHT22;3211;53.452;-2.264;2024-01-11T17:43:29;7.40;99.90
6357;DHT22;3211;53.452;-2.264;2024-01-11T17:46:21;7.20;99.90
6357;DHT22;3211;53.452;-2.264;2024-01-11T17:49:12;7.30;99.90
6357;DHT22;3211;53.452;-2.264;2024-01-11T17:52:00;7.20;99.90
6357;DHT22;3211;53.452;-2.264;2024-01-11T17:54:47;7.20;99.90
6357;DHT22;3211;53.452;-2.264;2024-01-11T17:57:35;7.10;99.90
6357;DHT22;3211;53.452;-2.264;2024-01-11T18:00:22;7.10;99.90
6357;DHT22;3211;53.452;-2.264;2024-01-11T18:03:09;7.10;99.90
6357;DHT22;3211;53.452;-2.264;2024-01-11T18:05:59;7.20;99.90
6357;DHT22;3211;53.452;-2.264;2024-01-11T18:08:46;7.10;99.90
6357;DHT22;3211;53.452;-2.264;2024-01-11T18:11:34;7.20;99.90
6357;DHT22;3211;53.452;-2.264;2024-01-11T18:14:22;7.10;99.90
6357;DHT22;3211;53.452;-2.264;2024-01-11T18:17:09;7.00;99.90